Hahnville, Louisiana
Current Conditions -  °F | °C
As of 2:53 PM on Thursday 18 Dec 2014 (Local Time) from KMSY Reporting Station
Overcast Overcast  
Wind Chill: 68°   Ceiling: 12000
Heat Index: 68°   Visibility: 10mi
Dew Point: 54°   Wind: 7mph
Humidity: 61%   Direction: 140°SE
Pressure: 30.09"   Gusts: NA
Location:  29.98°N, 90.41°W
Report Text: KMSY 182053Z 14006KT 10SM FEW048 SCT090 OVC120 20/12 A3009 RMK AO2 SLP192 T02000122 56017
Loading
Personal Weather Stations






























Interactive Weather Map New forecast layout! Learn more

10-Day Weather Forecast

Advertisements
Track Severe Weather on mobile